Time;durP1;ratioP1;P1;durP2;ratioP2;P2;SDS_P1;SDS_P2;PMS_P1;PMS_P2;Temp;Humidity;BMP_temperature;BMP_pressure;BME280_temperature;BME280_humidity;BME280_pressure;Samples;Min_cycle;Max_cycle;Signal;HPM_P1;HPM_P2
2022/12/12 00:01:42;;;;;;;4.60;4.20;;;;;;;;;;5137466;27;20214;-68
2022/12/12 00:04:10;;;;;;;4.05;3.75;;;;;;;;;;5138249;27;20210;-68
2022/12/12 00:06:38;;;;;;;4.40;4.00;;;;;;;;;;5124884;27;20263;-68
2022/12/12 00:09:08;;;;;;;4.25;3.85;;;;;;;;;;5141706;27;20791;-68
2022/12/12 00:11:36;;;;;;;4.10;3.80;;;;;;;;;;5141709;27;20202;-68
2022/12/12 00:14:04;;;;;;;4.03;3.72;;;;;;;;;;5141361;27;20214;-68
2022/12/12 00:16:32;;;;;;;3.70;3.40;;;;;;;;;;5141460;27;20224;-69
2022/12/12 00:19:00;;;;;;;3.80;3.50;;;;;;;;;;5141422;27;20838;-69
2022/12/12 00:21:29;;;;;;;4.15;3.85;;;;;;;;;;5141645;27;20236;-69
2022/12/12 00:23:57;;;;;;;3.65;3.35;;;;;;;;;;5140148;27;20213;-68
2022/12/12 00:26:28;;;;;;;4.10;3.70;;;;;;;;;;5141189;27;20249;-68
2022/12/12 00:28:57;;;;;;;3.97;3.67;;;;;;;;;;5141966;27;20477;-68
2022/12/12 00:31:25;;;;;;;3.95;3.65;;;;;;;;;;5141704;27;20578;-68
2022/12/12 00:33:53;;;;;;;3.80;3.50;;;;;;;;;;5141332;27;20206;-68
2022/12/12 00:36:22;;;;;;;3.63;3.33;;;;;;;;;;5141545;27;20219;-69
2022/12/12 00:38:50;;;;;;;3.80;3.50;;;;;;;;;;5141165;27;20271;-69
2022/12/12 00:41:18;;;;;;;4.10;3.70;;;;;;;;;;5141782;27;20301;-69
2022/12/12 00:43:48;;;;;;;3.80;3.50;;;;;;;;;;5141164;27;20608;-68
2022/12/12 00:46:16;;;;;;;4.00;3.70;;;;;;;;;;5141298;27;20220;-68
2022/12/12 00:48:44;;;;;;;3.50;3.20;;;;;;;;;;5140608;27;20206;-68
2022/12/12 00:51:14;;;;;;;3.53;3.30;;;;;;;;;;5140913;27;20213;-68
2022/12/12 00:53:42;;;;;;;3.75;3.45;;;;;;;;;;5140809;27;20233;-68
2022/12/12 00:56:10;;;;;;;3.88;3.58;;;;;;;;;;5141126;27;20202;-68
2022/12/12 00:58:37;;;;;;;3.72;3.42;;;;;;;;;;5140993;27;20226;-68
2022/12/12 01:01:11;;;;;;;3.70;3.40;;;;;;;;;;5140941;27;20617;-68
2022/12/12 01:03:40;;;;;;;3.67;3.38;;;;;;;;;;5132803;27;20202;-68
2022/12/12 01:06:08;;;;;;;3.30;3.10;;;;;;;;;;5140779;27;20203;-68
2022/12/12 01:08:36;;;;;;;3.70;3.40;;;;;;;;;;5140600;27;20198;-68
2022/12/12 01:11:04;;;;;;;3.00;2.80;;;;;;;;;;5140778;27;20573;-68
2022/12/12 01:13:32;;;;;;;3.40;3.10;;;;;;;;;;5140412;27;20228;-68
2022/12/12 01:16:00;;;;;;;3.22;3.03;;;;;;;;;;5140477;27;20285;-68
2022/12/12 01:18:29;;;;;;;3.33;3.03;;;;;;;;;;5140432;27;20509;-68
2022/12/12 01:20:57;;;;;;;3.47;3.17;;;;;;;;;;5140462;27;20210;-68
2022/12/12 01:23:25;;;;;;;3.47;3.17;;;;;;;;;;5140437;27;20217;-68
2022/12/12 01:26:00;;;;;;;3.50;3.20;;;;;;;;;;5140230;27;20202;-68
2022/12/12 01:28:28;;;;;;;3.67;3.38;;;;;;;;;;5139838;27;20469;-68
2022/12/12 01:30:55;;;;;;;3.40;3.10;;;;;;;;;;5139970;27;20206;-68
2022/12/12 01:33:23;;;;;;;3.10;2.90;;;;;;;;;;5139884;27;20210;-68
2022/12/12 01:35:53;;;;;;;3.30;3.00;;;;;;;;;;5140420;27;20463;-68
2022/12/12 01:38:21;;;;;;;3.17;2.97;;;;;;;;;;5131873;27;20297;-68
2022/12/12 01:40:48;;;;;;;3.17;2.88;;;;;;;;;;5140024;27;20247;-68
2022/12/12 01:43:18;;;;;;;3.22;3.03;;;;;;;;;;5139563;27;20234;-68
2022/12/12 01:46:15;;;;;;;3.10;2.90;;;;;;;;;;5139848;27;20209;-68
2022/12/12 01:48:47;;;;;;;3.45;3.15;;;;;;;;;;5139894;27;20581;-68
2022/12/12 01:51:18;;;;;;;3.00;2.80;;;;;;;;;;5138965;27;20578;-68
2022/12/12 01:53:46;;;;;;;3.47;3.17;;;;;;;;;;5131466;27;20296;-69
2022/12/12 01:56:15;;;;;;;3.20;3.00;;;;;;;;;;5139328;27;20209;-68
2022/12/12 01:58:45;;;;;;;3.30;3.00;;;;;;;;;;5139923;27;20254;-68
2022/12/12 02:01:13;;;;;;;3.28;3.00;;;;;;;;;;5139539;27;20206;-69
2022/12/12 02:03:42;;;;;;;3.35;3.10;;;;;;;;;;5139574;27;20209;-68
2022/12/12 02:06:11;;;;;;;3.47;3.17;;;;;;;;;;5139828;27;20293;-68
2022/12/12 02:08:42;;;;;;;3.28;3.05;;;;;;;;;;5139763;27;20275;-68
2022/12/12 02:11:09;;;;;;;3.35;3.00;;;;;;;;;;5139269;27;20210;-68
2022/12/12 02:13:38;;;;;;;3.30;3.10;;;;;;;;;;5139329;27;20202;-68
2022/12/12 02:16:09;;;;;;;3.08;2.80;;;;;;;;;;5139015;27;20246;-68
2022/12/12 02:18:42;;;;;;;3.20;2.90;;;;;;;;;;5139265;27;20325;-69
2022/12/12 02:21:14;;;;;;;3.42;3.13;;;;;;;;;;5139569;27;20595;-68
2022/12/12 02:23:59;;;;;;;3.50;3.20;;;;;;;;;;5139332;27;20631;-68
2022/12/12 02:26:42;;;;;;;3.20;2.90;;;;;;;;;;5139956;27;20472;-68
2022/12/12 02:29:24;;;;;;;3.05;2.85;;;;;;;;;;5139275;27;20241;-68
2022/12/12 02:31:58;;;;;;;3.35;3.05;;;;;;;;;;5139262;27;20431;-68
2022/12/12 02:34:30;;;;;;;3.53;3.22;;;;;;;;;;5139220;27;20292;-68
2022/12/12 02:37:02;;;;;;;2.92;2.72;;;;;;;;;;5139220;27;20263;-69
2022/12/12 02:39:36;;;;;;;3.65;3.35;;;;;;;;;;5139260;27;20489;-68
2022/12/12 02:42:06;;;;;;;3.10;2.90;;;;;;;;;;5138767;27;20241;-68
2022/12/12 02:44:36;;;;;;;3.47;3.17;;;;;;;;;;5138938;27;20206;-68
2022/12/12 02:47:08;;;;;;;3.38;3.10;;;;;;;;;;5138127;27;20202;-68
2022/12/12 02:49:38;;;;;;;2.90;2.70;;;;;;;;;;5139177;27;20199;-68
2022/12/12 02:52:07;;;;;;;3.10;2.90;;;;;;;;;;5138975;27;20297;-68
2022/12/12 02:54:35;;;;;;;3.42;3.13;;;;;;;;;;5138840;27;20212;-69
2022/12/12 02:57:03;;;;;;;3.10;2.90;;;;;;;;;;5138669;27;20638;-68
2022/12/12 02:59:34;;;;;;;3.63;3.35;;;;;;;;;;5138008;27;20229;-68
2022/12/12 03:02:11;;;;;;;3.67;3.38;;;;;;;;;;5138510;27;20587;-68
2022/12/12 03:07:49;;;;;;;3.22;2.97;;;;;;;;;;5101469;28;20320;-70
2022/12/12 03:10:21;;;;;;;3.67;3.38;;;;;;;;;;5138757;28;20208;-68
2022/12/12 03:12:52;;;;;;;3.08;2.88;;;;;;;;;;5138953;28;20553;-68
2022/12/12 03:15:23;;;;;;;3.63;3.33;;;;;;;;;;5138508;28;20202;-68
2022/12/12 03:17:57;;;;;;;3.38;3.08;;;;;;;;;;5138595;27;20483;-68
2022/12/12 03:20:26;;;;;;;3.13;2.92;;;;;;;;;;5138266;28;20513;-68
2022/12/12 03:22:57;;;;;;;3.40;3.10;;;;;;;;;;5138119;28;20202;-68
2022/12/12 03:25:27;;;;;;;3.63;3.33;;;;;;;;;;5138770;27;20202;-68
2022/12/12 03:27:59;;;;;;;2.97;2.78;;;;;;;;;;5138650;27;20566;-70
2022/12/12 03:30:28;;;;;;;3.10;2.85;;;;;;;;;;5138677;27;20207;-67
2022/12/12 03:32:59;;;;;;;3.42;3.13;;;;;;;;;;5138529;28;20307;-68
2022/12/12 03:35:29;;;;;;;3.35;3.15;;;;;;;;;;5138480;27;20245;-70
2022/12/12 03:38:01;;;;;;;3.40;3.10;;;;;;;;;;5138483;28;20213;-68
2022/12/12 03:40:31;;;;;;;3.67;3.38;;;;;;;;;;5138088;27;20222;-68
2022/12/12 03:43:02;;;;;;;3.10;2.90;;;;;;;;;;5138287;28;20230;-68
2022/12/12 03:45:31;;;;;;;3.10;2.85;;;;;;;;;;5138515;28;20202;-68
2022/12/12 03:48:04;;;;;;;3.50;3.20;;;;;;;;;;5138498;27;20202;-69
2022/12/12 03:50:34;;;;;;;3.13;2.83;;;;;;;;;;5138410;28;20570;-67
2022/12/12 03:53:03;;;;;;;3.47;3.17;;;;;;;;;;5138404;28;20289;-68
2022/12/12 03:55:33;;;;;;;3.00;2.80;;;;;;;;;;5138137;27;20664;-68
2022/12/12 03:58:03;;;;;;;2.95;2.75;;;;;;;;;;5139108;27;20213;-68
2022/12/12 04:00:36;;;;;;;3.38;3.08;;;;;;;;;;5141817;27;20233;-68
2022/12/12 04:03:09;;;;;;;2.83;2.63;;;;;;;;;;5141901;27;20207;-68
2022/12/12 04:06:25;;;;;;;3.28;2.97;;;;;;;;;;5140692;27;20210;-68
2022/12/12 04:08:28;;;;;;;3.33;3.03;;;;;;;;;;5141063;27;20565;-68
2022/12/12 04:13:50;;;;;;;3.08;2.88;;;;;;;;;;5140981;27;20483;-68
2022/12/12 04:16:21;;;;;;;3.30;3.00;;;;;;;;;;5132814;27;20570;-68
2022/12/12 04:18:53;;;;;;;3.55;3.25;;;;;;;;;;5141837;27;20202;-68
2022/12/12 04:24:18;;;;;;;2.90;2.70;;;;;;;;;;5141208;27;20193;-67
2022/12/12 04:26:48;;;;;;;2.92;2.72;;;;;;;;;;5141151;27;20198;-68
2022/12/12 04:29:46;;;;;;;2.95;2.75;;;;;;;;;;5141075;27;20364;-70
2022/12/12 04:32:16;;;;;;;2.97;2.78;;;;;;;;;;5077915;28;20274;-69
2022/12/12 04:34:48;;;;;;;2.80;2.60;;;;;;;;;;5127874;27;20213;-69
2022/12/12 04:37:18;;;;;;;2.92;2.72;;;;;;;;;;5140873;27;20208;-69
2022/12/12 04:39:47;;;;;;;3.35;3.05;;;;;;;;;;5140758;27;20222;-68
2022/12/12 04:42:17;;;;;;;3.08;2.88;;;;;;;;;;5140454;27;20241;-69
2022/12/12 04:44:45;;;;;;;2.88;2.67;;;;;;;;;;5140921;27;20480;-68
2022/12/12 04:47:14;;;;;;;3.13;2.90;;;;;;;;;;5141169;27;20228;-68
2022/12/12 04:49:43;;;;;;;2.85;2.65;;;;;;;;;;5140852;27;20289;-68
2022/12/12 04:52:14;;;;;;;3.00;2.80;;;;;;;;;;5140256;27;20209;-70
2022/12/12 04:54:45;;;;;;;3.03;2.80;;;;;;;;;;5140042;27;20202;-70
2022/12/12 04:57:14;;;;;;;3.03;2.83;;;;;;;;;;5140292;27;20202;-69
2022/12/12 04:59:42;;;;;;;3.15;2.85;;;;;;;;;;5140476;27;20274;-69
2022/12/12 05:02:15;;;;;;;3.08;2.88;;;;;;;;;;5140581;27;20282;-68
2022/12/12 05:04:45;;;;;;;2.85;2.65;;;;;;;;;;5140808;27;20229;-68
2022/12/12 05:07:17;;;;;;;2.80;2.60;;;;;;;;;;5139846;27;20199;-68
2022/12/12 05:09:44;;;;;;;2.50;2.30;;;;;;;;;;5138636;27;20213;-69
2022/12/12 05:12:13;;;;;;;2.97;2.78;;;;;;;;;;5157098;27;20288;-69
2022/12/12 05:14:40;;;;;;;3.15;2.70;;;;;;;;;;5160882;27;20231;-69
2022/12/12 05:17:10;;;;;;;2.88;2.60;;;;;;;;;;5160711;27;20292;-69
2022/12/12 05:19:37;;;;;;;3.28;2.97;;;;;;;;;;5160315;27;20265;-69
2022/12/12 05:22:05;;;;;;;2.90;2.70;;;;;;;;;;5160044;27;20309;-69
2022/12/12 05:24:33;;;;;;;2.70;2.50;;;;;;;;;;5160255;27;20201;-69
2022/12/12 05:27:01;;;;;;;3.15;2.95;;;;;;;;;;5159767;27;20296;-69
2022/12/12 05:29:28;;;;;;;2.90;2.70;;;;;;;;;;5159085;27;20193;-69
2022/12/12 05:31:56;;;;;;;2.67;2.47;;;;;;;;;;5160058;27;20208;-69
2022/12/12 05:34:24;;;;;;;2.90;2.70;;;;;;;;;;5160100;27;20209;-69
2022/12/12 05:36:52;;;;;;;2.88;2.67;;;;;;;;;;5160029;27;20209;-69
2022/12/12 05:39:19;;;;;;;2.90;2.70;;;;;;;;;;5159735;27;20251;-69
2022/12/12 05:41:48;;;;;;;2.83;2.63;;;;;;;;;;5159104;27;20236;-70
2022/12/12 05:44:15;;;;;;;2.80;2.60;;;;;;;;;;5160224;27;20304;-67
2022/12/12 05:46:42;;;;;;;3.40;3.10;;;;;;;;;;5159385;27;20201;-70
2022/12/12 05:49:10;;;;;;;2.97;2.78;;;;;;;;;;5158955;27;20572;-69
2022/12/12 05:51:37;;;;;;;3.03;2.83;;;;;;;;;;5158864;27;20198;-70
2022/12/12 05:54:05;;;;;;;3.00;2.80;;;;;;;;;;5158438;27;20328;-69
2022/12/12 05:56:35;;;;;;;2.55;2.35;;;;;;;;;;5158192;27;20558;-68
2022/12/12 05:59:07;;;;;;;3.20;2.90;;;;;;;;;;5158138;27;20201;-67
2022/12/12 06:01:35;;;;;;;2.72;2.53;;;;;;;;;;5158099;27;20277;-68
2022/12/12 06:04:03;;;;;;;3.40;3.15;;;;;;;;;;5157752;27;20228;-69
2022/12/12 06:06:30;;;;;;;2.78;2.58;;;;;;;;;;5157576;27;20312;-69
2022/12/12 06:08:57;;;;;;;2.70;2.50;;;;;;;;;;5157574;27;20204;-68
2022/12/12 06:11:25;;;;;;;2.85;2.65;;;;;;;;;;5156812;27;20204;-68
2022/12/12 06:13:53;;;;;;;2.88;2.67;;;;;;;;;;5156740;27;20201;-68
2022/12/12 06:16:21;;;;;;;3.17;2.88;;;;;;;;;;5156773;27;20671;-68
2022/12/12 06:18:51;;;;;;;2.65;2.45;;;;;;;;;;5156139;27;20812;-68
2022/12/12 06:21:19;;;;;;;3.08;2.85;;;;;;;;;;5155875;27;20235;-68
2022/12/12 06:23:47;;;;;;;3.22;2.92;;;;;;;;;;5156536;27;20197;-69
2022/12/12 06:26:15;;;;;;;2.92;2.72;;;;;;;;;;5156113;27;20194;-68
2022/12/12 06:28:43;;;;;;;3.45;2.95;;;;;;;;;;5156835;27;20526;-69
2022/12/12 06:31:11;;;;;;;3.03;2.72;;;;;;;;;;5157519;27;20233;-68
2022/12/12 06:33:41;;;;;;;2.80;2.42;;;;;;;;;;5141444;27;20198;-68
2022/12/12 06:36:10;;;;;;;3.30;3.00;;;;;;;;;;5136655;27;20194;-68
2022/12/12 06:38:37;;;;;;;3.08;2.78;;;;;;;;;;5136653;27;20216;-70
2022/12/12 06:41:06;;;;;;;2.97;2.78;;;;;;;;;;5135646;27;20230;-68
2022/12/12 06:43:34;;;;;;;3.05;2.83;;;;;;;;;;5135664;27;20306;-68
2022/12/12 06:46:02;;;;;;;3.20;2.90;;;;;;;;;;5135667;27;20247;-70
2022/12/12 06:48:30;;;;;;;3.42;3.13;;;;;;;;;;5135756;27;20206;-68
2022/12/12 06:51:00;;;;;;;9.63;8.73;;;;;;;;;;5135140;27;20646;-68
2022/12/12 06:53:27;;;;;;;18.17;16.38;;;;;;;;;;5136020;27;20415;-69
2022/12/12 06:55:55;;;;;;;20.15;18.05;;;;;;;;;;5136534;27;20305;-68
2022/12/12 06:58:22;;;;;;;20.50;18.50;;;;;;;;;;5136142;27;20194;-68
2022/12/12 07:00:53;;;;;;;20.58;18.48;;;;;;;;;;5136734;27;20505;-68
2022/12/12 07:03:20;;;;;;;19.92;17.83;;;;;;;;;;5136103;28;20205;-70
2022/12/12 07:05:48;;;;;;;20.80;18.73;;;;;;;;;;5135513;28;20581;-68
2022/12/12 07:08:17;;;;;;;19.27;17.23;;;;;;;;;;5135612;28;20312;-68
2022/12/12 07:10:44;;;;;;;19.70;17.23;;;;;;;;;;5136395;28;20481;-68
2022/12/12 07:13:12;;;;;;;19.10;17.05;;;;;;;;;;5136108;28;20205;-68
2022/12/12 07:15:43;;;;;;;18.70;16.83;;;;;;;;;;5135314;28;20296;-68
2022/12/12 07:18:10;;;;;;;18.63;16.80;;;;;;;;;;5136312;28;20213;-68
2022/12/12 07:20:40;;;;;;;17.40;15.68;;;;;;;;;;5135268;28;20724;-68
2022/12/12 07:23:07;;;;;;;17.73;15.85;;;;;;;;;;5135771;28;20781;-70
2022/12/12 07:25:37;;;;;;;16.92;15.23;;;;;;;;;;5135879;28;20206;-68
2022/12/12 07:28:05;;;;;;;17.50;15.70;;;;;;;;;;5135560;28;20303;-70
2022/12/12 07:30:32;;;;;;;16.48;14.88;;;;;;;;;;5136128;28;20289;-68
2022/12/12 07:33:00;;;;;;;17.52;14.85;;;;;;;;;;5138020;27;20285;-68
2022/12/12 07:35:27;;;;;;;15.88;14.20;;;;;;;;;;5139857;27;20305;-69
2022/12/12 07:37:55;;;;;;;16.20;14.52;;;;;;;;;;5139956;27;20234;-70
2022/12/12 07:40:22;;;;;;;14.98;13.43;;;;;;;;;;5139561;27;20222;-69
2022/12/12 07:42:51;;;;;;;16.05;14.27;;;;;;;;;;5139694;27;20321;-70
2022/12/12 07:45:19;;;;;;;14.77;13.30;;;;;;;;;;5139726;27;20309;-70
2022/12/12 07:47:46;;;;;;;14.40;12.90;;;;;;;;;;5138820;27;20833;-69
2022/12/12 07:50:14;;;;;;;13.80;12.40;;;;;;;;;;5139433;27;20204;-67
2022/12/12 07:52:42;;;;;;;13.20;11.90;;;;;;;;;;5139216;27;20285;-69
2022/12/12 07:55:10;;;;;;;14.48;12.00;;;;;;;;;;5140311;27;20573;-69
2022/12/12 07:57:38;;;;;;;12.50;11.20;;;;;;;;;;5139198;27;20198;-70
2022/12/12 08:00:08;;;;;;;12.32;11.13;;;;;;;;;;5139619;27;20353;-70
2022/12/12 08:02:35;;;;;;;13.10;11.80;;;;;;;;;;5139303;27;20465;-70
2022/12/12 08:05:03;;;;;;;14.05;12.57;;;;;;;;;;5139864;27;20285;-69
2022/12/12 08:07:30;;;;;;;51.05;37.95;;;;;;;;;;5138595;27;20204;-71
2022/12/12 08:09:58;;;;;;;48.85;35.60;;;;;;;;;;5143058;27;20277;-70
2022/12/12 08:12:26;;;;;;;44.50;35.00;;;;;;;;;;5159909;27;20577;-71
2022/12/12 08:14:53;;;;;;;45.58;34.58;;;;;;;;;;5159710;27;20281;-69
2022/12/12 08:17:22;;;;;;;43.10;31.98;;;;;;;;;;5160567;27;20201;-71
2022/12/12 08:19:50;;;;;;;40.13;33.28;;;;;;;;;;5159770;27;20237;-70
2022/12/12 08:22:17;;;;;;;39.90;32.15;;;;;;;;;;5159366;27;20222;-70
2022/12/12 08:24:45;;;;;;;36.78;29.98;;;;;;;;;;5159723;27;20802;-71
2022/12/12 08:27:12;;;;;;;36.63;29.25;;;;;;;;;;5158358;27;20206;-69
2022/12/12 08:29:39;;;;;;;35.63;29.63;;;;;;;;;;5159173;27;20241;-71
2022/12/12 08:32:07;;;;;;;35.35;28.98;;;;;;;;;;5159294;27;20701;-72
2022/12/12 08:34:36;;;;;;;33.63;28.13;;;;;;;;;;5159113;27;20296;-71
2022/12/12 08:37:04;;;;;;;31.80;25.92;;;;;;;;;;5158857;27;20201;-71
2022/12/12 08:39:31;;;;;;;31.30;26.15;;;;;;;;;;5158222;27;20206;-71
2022/12/12 08:42:00;;;;;;;30.17;24.95;;;;;;;;;;5158106;27;20231;-70
2022/12/12 08:44:27;;;;;;;29.75;25.13;;;;;;;;;;5158372;27;20201;-70
2022/12/12 08:46:55;;;;;;;29.92;23.83;;;;;;;;;;5158884;27;20232;-71
2022/12/12 08:49:22;;;;;;;29.00;23.27;;;;;;;;;;5159146;27;20201;-70
2022/12/12 08:51:51;;;;;;;27.40;23.15;;;;;;;;;;5158642;27;20471;-70
2022/12/12 08:54:19;;;;;;;27.50;23.10;;;;;;;;;;5158836;27;20261;-70
2022/12/12 08:56:46;;;;;;;25.45;21.73;;;;;;;;;;5158330;27;20202;-71
2022/12/12 08:59:14;;;;;;;25.35;22.00;;;;;;;;;;5158574;27;20201;-72
2022/12/12 09:01:41;;;;;;;26.85;21.05;;;;;;;;;;5159376;27;20229;-70
2022/12/12 09:04:09;;;;;;;24.77;20.75;;;;;;;;;;5158854;27;20632;-70
2022/12/12 09:06:36;;;;;;;22.08;19.10;;;;;;;;;;5158993;27;20206;-71
2022/12/12 09:09:05;;;;;;;23.05;18.48;;;;;;;;;;5158389;27;20202;-70
2022/12/12 09:11:32;;;;;;;21.27;18.40;;;;;;;;;;5158440;27;20297;-70
2022/12/12 09:14:00;;;;;;;21.25;18.33;;;;;;;;;;5159365;27;20277;-71
2022/12/12 09:16:28;;;;;;;21.15;17.67;;;;;;;;;;5156171;27;20305;-70
2022/12/12 09:18:56;;;;;;;20.95;17.45;;;;;;;;;;5152091;27;20305;-71
2022/12/12 09:21:24;;;;;;;25.17;20.98;;;;;;;;;;5157413;27;20221;-70
2022/12/12 09:23:51;;;;;;;25.17;22.48;;;;;;;;;;5158716;27;20300;-70
2022/12/12 09:26:20;;;;;;;26.48;22.75;;;;;;;;;;5158573;27;20491;-71
2022/12/12 09:28:49;;;;;;;25.67;22.52;;;;;;;;;;5158447;27;20206;-71
2022/12/12 09:31:16;;;;;;;25.67;21.23;;;;;;;;;;5157550;27;20288;-71
2022/12/12 09:33:44;;;;;;;24.58;20.90;;;;;;;;;;5158393;27;20224;-70
2022/12/12 09:36:12;;;;;;;22.65;20.10;;;;;;;;;;5157959;27;20207;-71
2022/12/12 09:38:40;;;;;;;21.30;18.58;;;;;;;;;;5157998;27;20295;-70
2022/12/12 09:41:12;;;;;;;37.42;19.55;;;;;;;;;;5158248;27;20233;-72
2022/12/12 09:43:44;;;;;;;19.65;16.67;;;;;;;;;;5158526;27;20499;-70
2022/12/12 09:46:15;;;;;;;18.80;16.42;;;;;;;;;;5157535;27;20300;-70
2022/12/12 09:48:44;;;;;;;18.48;16.13;;;;;;;;;;5158300;27;20209;-69
2022/12/12 09:51:12;;;;;;;17.92;15.75;;;;;;;;;;5157216;27;20288;-70
2022/12/12 09:53:40;;;;;;;17.52;15.48;;;;;;;;;;5157753;27;20194;-70
2022/12/12 09:56:11;;;;;;;17.17;15.30;;;;;;;;;;5157906;27;20699;-70
2022/12/12 09:58:41;;;;;;;15.80;13.93;;;;;;;;;;5158145;27;20201;-70
2022/12/12 10:01:17;;;;;;;15.40;13.80;;;;;;;;;;5157390;27;20262;-70
2022/12/12 10:03:53;;;;;;;14.82;12.95;;;;;;;;;;5157608;27;20201;-69
2022/12/12 10:06:21;;;;;;;14.02;12.63;;;;;;;;;;5157657;27;20193;-69
2022/12/12 10:08:55;;;;;;;13.10;11.77;;;;;;;;;;5156995;27;20208;-70
2022/12/12 10:14:10;;;;;;;13.43;11.75;;;;;;;;;;5157070;27;20195;-70
2022/12/12 10:16:40;;;;;;;12.10;10.80;;;;;;;;;;5156441;27;20212;-69
2022/12/12 10:19:09;;;;;;;12.07;10.43;;;;;;;;;;5156728;27;20209;-70
2022/12/12 10:21:39;;;;;;;11.88;10.57;;;;;;;;;;5156984;27;20324;-69
2022/12/12 10:24:12;;;;;;;11.20;10.00;;;;;;;;;;5157202;27;20727;-69
2022/12/12 10:26:41;;;;;;;11.00;9.90;;;;;;;;;;5157464;27;20213;-70
2022/12/12 10:29:11;;;;;;;11.00;9.85;;;;;;;;;;5156514;27;20506;-70
2022/12/12 10:31:45;;;;;;;11.23;9.90;;;;;;;;;;5156892;27;20339;-70
2022/12/12 10:34:17;;;;;;;9.43;8.52;;;;;;;;;;5157053;27;20236;-70
2022/12/12 10:36:52;;;;;;;9.52;8.45;;;;;;;;;;5156687;27;20208;-69
2022/12/12 10:39:24;;;;;;;9.65;8.65;;;;;;;;;;5156572;27;20201;-70
2022/12/12 10:41:57;;;;;;;9.57;8.63;;;;;;;;;;5155786;27;20336;-70
2022/12/12 10:44:28;;;;;;;8.88;7.97;;;;;;;;;;5156070;27;20202;-70
2022/12/12 10:47:00;;;;;;;8.90;8.00;;;;;;;;;;5156944;27;20285;-70
2022/12/12 10:49:28;;;;;;;8.20;7.38;;;;;;;;;;5156084;27;20488;-69
2022/12/12 10:51:56;;;;;;;7.95;7.15;;;;;;;;;;5155508;27;20288;-69
2022/12/12 10:54:26;;;;;;;7.95;7.18;;;;;;;;;;5155707;27;20197;-69
2022/12/12 10:57:07;;;;;;;8.10;7.30;;;;;;;;;;5155625;27;20724;-70
2022/12/12 10:59:39;;;;;;;8.65;7.60;;;;;;;;;;5156147;27;20254;-70
2022/12/12 11:02:21;;;;;;;7.57;6.88;;;;;;;;;;5155653;27;20218;-70
2022/12/12 11:04:48;;;;;;;7.55;6.72;;;;;;;;;;5155340;27;20298;-70
2022/12/12 11:07:20;;;;;;;7.05;6.38;;;;;;;;;;5155366;27;20557;-70
2022/12/12 11:09:47;;;;;;;7.22;6.47;;;;;;;;;;5155866;27;20647;-70
2022/12/12 11:12:16;;;;;;;6.80;6.20;;;;;;;;;;5156239;27;20293;-70
2022/12/12 11:14:46;;;;;;;7.13;6.43;;;;;;;;;;5155552;27;20201;-69
2022/12/12 11:17:22;;;;;;;6.70;6.00;;;;;;;;;;5155534;27;20208;-69
2022/12/12 11:19:50;;;;;;;6.55;5.95;;;;;;;;;;5155701;27;20661;-69
2022/12/12 11:22:17;;;;;;;6.32;5.72;;;;;;;;;;5155773;27;20221;-70
2022/12/12 11:24:45;;;;;;;7.00;5.70;;;;;;;;;;5155686;27;20285;-70
2022/12/12 11:27:20;;;;;;;5.90;5.30;;;;;;;;;;5155462;27;20703;-70
2022/12/12 11:29:49;;;;;;;13.45;11.38;;;;;;;;;;5155660;27;20615;-70
2022/12/12 11:32:17;;;;;;;10.68;9.23;;;;;;;;;;5154716;27;20300;-70
2022/12/12 11:34:47;;;;;;;10.20;9.05;;;;;;;;;;5156216;27;20218;-70
2022/12/12 11:37:16;;;;;;;9.60;8.60;;;;;;;;;;5155450;27;20266;-71
2022/12/12 11:39:44;;;;;;;10.40;8.75;;;;;;;;;;5155596;27;20213;-70
2022/12/12 11:42:20;;;;;;;9.05;8.15;;;;;;;;;;5155769;27;20244;-70
2022/12/12 11:44:48;;;;;;;9.18;8.05;;;;;;;;;;5154959;27;20197;-69
2022/12/12 11:47:20;;;;;;;9.40;8.23;;;;;;;;;;5155456;27;20204;-69
2022/12/12 11:49:50;;;;;;;21.35;19.35;;;;;;;;;;5155312;27;20201;-69
2022/12/12 11:52:19;;;;;;;17.55;15.95;;;;;;;;;;5154547;27;20296;-69
2022/12/12 11:54:47;;;;;;;17.70;16.00;;;;;;;;;;5155735;27;20194;-70
2022/12/12 11:57:17;;;;;;;17.38;15.77;;;;;;;;;;5155213;27;20284;-69
2022/12/12 11:59:54;;;;;;;15.27;13.82;;;;;;;;;;5155383;27;20201;-70
2022/12/12 12:02:33;;;;;;;16.02;14.48;;;;;;;;;;5154938;27;20231;-70
2022/12/12 12:05:05;;;;;;;15.50;13.93;;;;;;;;;;5155374;27;20241;-70
2022/12/12 12:07:47;;;;;;;15.30;13.70;;;;;;;;;;5154274;27;20245;-70
2022/12/12 12:10:19;;;;;;;15.23;13.77;;;;;;;;;;5154591;27;20202;-68
2022/12/12 12:12:50;;;;;;;15.27;13.85;;;;;;;;;;5154373;27;20544;-69
2022/12/12 12:15:26;;;;;;;14.52;13.13;;;;;;;;;;5155500;27;20201;-69
2022/12/12 12:18:02;;;;;;;13.55;12.35;;;;;;;;;;5154544;27;20193;-69
2022/12/12 12:20:35;;;;;;;14.13;12.70;;;;;;;;;;5156766;27;20208;-70
2022/12/12 12:23:08;;;;;;;12.90;11.70;;;;;;;;;;5159248;27;20232;-69
2022/12/12 12:25:39;;;;;;;12.32;11.13;;;;;;;;;;5158442;27;20672;-68
2022/12/12 12:28:17;;;;;;;12.32;11.23;;;;;;;;;;5150528;27;20209;-70
2022/12/12 12:30:48;;;;;;;11.90;10.80;;;;;;;;;;5150561;27;20207;-70
2022/12/12 12:33:30;;;;;;;11.07;10.05;;;;;;;;;;5158004;27;20193;-70
2022/12/12 12:36:06;;;;;;;11.45;10.35;;;;;;;;;;5158166;27;20489;-70
2022/12/12 12:38:43;;;;;;;10.75;9.75;;;;;;;;;;5157695;27;20304;-68
2022/12/12 12:41:18;;;;;;;10.70;9.70;;;;;;;;;;5157617;27;20257;-69
2022/12/12 12:43:57;;;;;;;9.80;8.90;;;;;;;;;;5158530;27;20817;-70
2022/12/12 12:46:30;;;;;;;10.13;9.23;;;;;;;;;;5157524;27;20328;-70
2022/12/12 12:49:00;;;;;;;9.80;8.90;;;;;;;;;;5157355;27;20292;-70
2022/12/12 12:51:33;;;;;;;9.38;8.38;;;;;;;;;;5158256;27;20309;-68
2022/12/12 12:54:03;;;;;;;8.30;7.55;;;;;;;;;;5157667;27;20269;-68
2022/12/12 12:56:31;;;;;;;8.35;7.57;;;;;;;;;;5157777;27;20308;-70
2022/12/12 12:59:00;;;;;;;8.63;7.82;;;;;;;;;;5158092;27;20209;-67
2022/12/12 13:01:31;;;;;;;8.40;7.60;;;;;;;;;;5159155;27;20304;-67
2022/12/12 13:04:02;;;;;;;8.13;7.22;;;;;;;;;;5157936;27;20324;-68
2022/12/12 13:06:36;;;;;;;7.55;6.85;;;;;;;;;;5138075;27;20201;-68
2022/12/12 13:46:20;;;;;;;7.55;5.28;;;;;;;;;;5090128;27;20989;-68
2022/12/12 13:48:51;;;;;;;6.60;5.20;;;;;;;;;;5090321;28;20208;-68
2022/12/12 13:51:39;;;;;;;7.53;4.90;;;;;;;;;;5091100;28;20214;-67
2022/12/12 13:54:25;;;;;;;6.85;4.93;;;;;;;;;;5090752;28;20530;-68
2022/12/12 13:57:07;;;;;;;5.40;4.80;;;;;;;;;;5090748;28;20506;-68
2022/12/12 13:59:54;;;;;;;5.03;4.53;;;;;;;;;;5091075;28;20310;-68
2022/12/12 14:02:27;;;;;;;8.90;4.72;;;;;;;;;;5090149;28;20199;-69
2022/12/12 14:18:54;;;;;;;4.28;3.80;;;;;;;;;;5090305;27;20549;-68
2022/12/12 14:21:37;;;;;;;5.13;3.80;;;;;;;;;;5090429;28;20611;-67
2022/12/12 14:24:19;;;;;;;8.77;7.50;;;;;;;;;;5091250;28;20210;-68
2022/12/12 14:26:48;;;;;;;9.07;8.18;;;;;;;;;;5090735;28;20227;-68
2022/12/12 14:29:25;;;;;;;7.55;6.80;;;;;;;;;;5090562;28;20249;-70
2022/12/12 14:31:56;;;;;;;6.97;6.28;;;;;;;;;;5090547;28;20199;-68
2022/12/12 14:34:27;;;;;;;6.85;5.97;;;;;;;;;;5090357;28;20207;-68
2022/12/12 14:37:24;;;;;;;6.82;5.85;;;;;;;;;;5091325;28;20288;-68
2022/12/12 14:39:54;;;;;;;6.32;5.68;;;;;;;;;;5090374;28;20211;-70
2022/12/12 14:42:25;;;;;;;5.72;5.18;;;;;;;;;;5091211;28;20211;-70
2022/12/12 14:44:53;;;;;;;6.13;5.53;;;;;;;;;;5089808;28;20639;-69
2022/12/12 14:47:20;;;;;;;5.68;4.93;;;;;;;;;;5090206;28;20227;-69
2022/12/12 14:49:47;;;;;;;6.05;5.47;;;;;;;;;;5090110;28;20215;-69
2022/12/12 14:52:17;;;;;;;5.53;5.03;;;;;;;;;;5090391;28;20605;-69
2022/12/12 14:54:46;;;;;;;4.90;4.50;;;;;;;;;;5089519;28;20200;-69
2022/12/12 14:57:19;;;;;;;5.63;5.03;;;;;;;;;;5089655;28;20218;-69
2022/12/12 14:59:47;;;;;;;5.20;4.70;;;;;;;;;;5089360;28;20227;-69
2022/12/12 15:02:17;;;;;;;4.55;4.15;;;;;;;;;;5089525;28;20211;-69
2022/12/12 15:04:46;;;;;;;5.53;4.50;;;;;;;;;;5089710;28;20196;-70
2022/12/12 15:07:23;;;;;;;4.78;4.38;;;;;;;;;;5090024;28;20235;-69
2022/12/12 15:09:52;;;;;;;4.28;3.97;;;;;;;;;;5089020;28;20227;-69
2022/12/12 15:12:21;;;;;;;4.45;3.72;;;;;;;;;;5088860;28;20208;-70
2022/12/12 15:14:55;;;;;;;4.28;3.88;;;;;;;;;;5089580;28;20211;-70
2022/12/12 15:17:24;;;;;;;4.30;3.92;;;;;;;;;;5087794;28;20253;-69
2022/12/12 15:19:52;;;;;;;3.95;3.65;;;;;;;;;;5074735;28;20200;-69
2022/12/12 15:22:23;;;;;;;3.80;3.50;;;;;;;;;;5076179;28;20204;-69
2022/12/12 15:24:52;;;;;;;3.65;3.35;;;;;;;;;;5076024;28;20212;-69
2022/12/12 15:27:22;;;;;;;3.78;3.47;;;;;;;;;;5075709;28;20221;-69
2022/12/12 15:29:50;;;;;;;3.53;3.22;;;;;;;;;;5076516;28;20215;-69
2022/12/12 15:32:18;;;;;;;3.80;3.47;;;;;;;;;;5075406;28;20212;-69
2022/12/12 15:34:47;;;;;;;4.43;3.63;;;;;;;;;;5075933;28;20204;-69
2022/12/12 15:37:21;;;;;;;3.58;3.28;;;;;;;;;;5075810;28;20201;-69
2022/12/12 15:40:18;;;;;;;3.10;2.90;;;;;;;;;;5075952;28;20231;-69
2022/12/12 15:42:48;;;;;;;3.30;3.00;;;;;;;;;;5075512;28;20266;-69
2022/12/12 15:45:18;;;;;;;3.67;3.38;;;;;;;;;;5075827;28;20243;-70
2022/12/12 15:47:45;;;;;;;3.00;2.80;;;;;;;;;;5074703;28;20648;-70
2022/12/12 15:50:16;;;;;;;3.30;3.00;;;;;;;;;;5074691;28;20196;-69
2022/12/12 15:52:43;;;;;;;3.30;3.05;;;;;;;;;;5075674;28;20203;-69
2022/12/12 15:55:18;;;;;;;2.88;2.67;;;;;;;;;;5075917;28;20215;-69
2022/12/12 15:57:48;;;;;;;3.13;2.83;;;;;;;;;;5075528;28;20210;-69